Redington Beach, Florida
Current Conditions -  °F | °C
As of 7:53 PM on Monday 22 Dec 2014 (Local Time) from KPIE Reporting Station
Clear Clear  
Wind Chill: 71°   Ceiling: Unl
Heat Index: 71°   Visibility: 10mi
Dew Point: 68°   Wind: 9mph
Humidity: 90%   Direction: 190°S
Pressure: 29.93"   Gusts: NA
Location:  27.8164°N, 82.7802°W
Report Text: KPIE 230053Z 19008KT 10SM CLR 22/20 A2993 RMK AO2 SLP136 T02170200
Loading
Personal Weather Stations






























Interactive Weather Map New forecast layout! Learn more

10-Day Weather Forecast

Advertisements
Track Severe Weather on mobile